Time;durP1;ratioP1;P1;durP2;ratioP2;P2;SDS_P1;SDS_P2;PMS_P1;PMS_P2;Temp;Humidity;BMP_temperature;BMP_pressure;BME280_temperature;BME280_humidity;BME280_pressure;Samples;Min_cycle;Max_cycle;Signal;HPM_P1;HPM_P2
2023/10/14 00:01:11;;;;;;;2.50;2.30;;;;;;;;;;5135234;27;20240;-73
2023/10/14 00:03:37;;;;;;;5.22;2.55;;;;;;;;;;5135723;27;20297;-72
2023/10/14 00:06:07;;;;;;;5.22;2.63;;;;;;;;;;5135029;27;20214;-72
2023/10/14 00:08:34;;;;;;;4.28;2.65;;;;;;;;;;5135569;27;20199;-72
2023/10/14 00:11:01;;;;;;;4.45;2.58;;;;;;;;;;5135186;27;20214;-72
2023/10/14 00:13:30;;;;;;;4.22;2.50;;;;;;;;;;5135482;27;20263;-72
2023/10/14 00:16:00;;;;;;;2.92;2.67;;;;;;;;;;5135019;27;20228;-72
2023/10/14 00:18:27;;;;;;;2.88;2.63;;;;;;;;;;5135017;27;20587;-72
2023/10/14 00:20:54;;;;;;;3.67;2.70;;;;;;;;;;5134847;27;20198;-72
2023/10/14 00:23:23;;;;;;;2.83;2.13;;;;;;;;;;5126891;27;20201;-72
2023/10/14 00:25:50;;;;;;;4.88;2.53;;;;;;;;;;5134283;27;20222;-71
2023/10/14 00:28:19;;;;;;;7.30;2.90;;;;;;;;;;5135045;27;20198;-72
2023/10/14 00:30:46;;;;;;;5.00;2.35;;;;;;;;;;5134627;27;20198;-72
2023/10/14 00:33:12;;;;;;;5.07;2.47;;;;;;;;;;5134934;27;20199;-72
2023/10/14 00:35:42;;;;;;;3.13;2.65;;;;;;;;;;5134766;27;20249;-71
2023/10/14 00:38:13;;;;;;;3.15;2.88;;;;;;;;;;5135092;27;20247;-72
2023/10/14 00:40:45;;;;;;;4.30;2.92;;;;;;;;;;5134516;27;20203;-72
2023/10/14 00:43:11;;;;;;;4.25;2.53;;;;;;;;;;5134609;27;20663;-73
2023/10/14 00:45:43;;;;;;;3.13;2.65;;;;;;;;;;5134470;27;20309;-72
2023/10/14 00:48:12;;;;;;;5.35;2.97;;;;;;;;;;5134386;27;20245;-72
2023/10/14 00:50:41;;;;;;;8.65;2.90;;;;;;;;;;5134382;27;20237;-71
2023/10/14 00:53:07;;;;;;;5.07;3.47;;;;;;;;;;5134532;27;20226;-71
2023/10/14 00:55:46;;;;;;;4.53;3.70;;;;;;;;;;5134387;27;20221;-71
2023/10/14 00:58:20;;;;;;;8.45;4.20;;;;;;;;;;5134439;27;20345;-71
2023/10/14 01:00:56;;;;;;;8.65;4.22;;;;;;;;;;5134341;27;20201;-72
2023/10/14 01:03:23;;;;;;;5.90;4.13;;;;;;;;;;5134546;27;20194;-71
2023/10/14 01:05:49;;;;;;;8.02;3.88;;;;;;;;;;5134199;27;20223;-72
2023/10/14 01:08:17;;;;;;;9.45;3.90;;;;;;;;;;5134125;27;20202;-72
2023/10/14 01:10:44;;;;;;;7.38;3.92;;;;;;;;;;5133875;27;20199;-71
2023/10/14 01:13:13;;;;;;;5.25;4.22;;;;;;;;;;5133905;27;20701;-72
2023/10/14 01:15:44;;;;;;;5.00;4.55;;;;;;;;;;5134147;27;20218;-72
2023/10/14 01:18:14;;;;;;;5.07;4.55;;;;;;;;;;5134703;27;20216;-71
2023/10/14 01:20:40;;;;;;;6.68;4.40;;;;;;;;;;5134263;27;20563;-72
2023/10/14 01:23:12;;;;;;;9.55;5.10;;;;;;;;;;5133617;27;20686;-71
2023/10/14 01:25:43;;;;;;;8.70;4.82;;;;;;;;;;5133874;27;20275;-72
2023/10/14 01:28:12;;;;;;;8.32;4.72;;;;;;;;;;5133536;27;20658;-71
2023/10/14 01:30:45;;;;;;;5.55;4.90;;;;;;;;;;5133637;27;20198;-71
2023/10/14 01:33:15;;;;;;;7.68;4.50;;;;;;;;;;5133601;27;20643;-71
2023/10/14 01:35:43;;;;;;;12.13;5.00;;;;;;;;;;5133480;27;20702;-71
2023/10/14 01:38:11;;;;;;;6.35;4.50;;;;;;;;;;5133689;27;20202;-72
2023/10/14 01:40:40;;;;;;;9.13;5.60;;;;;;;;;;5133394;27;20202;-71
2023/10/14 01:43:06;;;;;;;11.00;5.47;;;;;;;;;;5133396;27;20202;-71
2023/10/14 01:45:39;;;;;;;8.32;4.72;;;;;;;;;;5133352;27;20306;-71
2023/10/14 01:48:19;;;;;;;9.88;4.78;;;;;;;;;;5133328;27;20289;-71
2023/10/14 01:50:46;;;;;;;8.48;5.28;;;;;;;;;;5133501;27;20258;-71
2023/10/14 01:53:17;;;;;;;8.45;4.53;;;;;;;;;;5133251;27;20698;-71
2023/10/14 01:55:44;;;;;;;4.80;4.40;;;;;;;;;;5133160;27;20218;-71
2023/10/14 01:58:16;;;;;;;9.57;4.95;;;;;;;;;;5133044;27;20202;-71
2023/10/14 02:00:46;;;;;;;8.48;5.10;;;;;;;;;;5132966;27;20198;-71
2023/10/14 02:03:12;;;;;;;5.57;5.07;;;;;;;;;;5132949;27;20571;-71
2023/10/14 02:05:40;;;;;;;6.80;4.65;;;;;;;;;;5133039;27;20215;-71
2023/10/14 02:08:13;;;;;;;7.10;4.93;;;;;;;;;;5133037;27;20243;-71
2023/10/14 02:10:46;;;;;;;8.07;4.85;;;;;;;;;;5132806;27;20658;-71
2023/10/14 02:13:13;;;;;;;8.32;4.82;;;;;;;;;;5132837;27;20604;-71
2023/10/14 02:15:39;;;;;;;7.43;5.50;;;;;;;;;;5132986;27;20309;-71
2023/10/14 02:18:06;;;;;;;6.43;4.85;;;;;;;;;;5132805;27;20198;-72
2023/10/14 02:20:38;;;;;;;7.32;5.18;;;;;;;;;;5132568;27;20666;-71
2023/10/14 02:23:05;;;;;;;7.68;4.90;;;;;;;;;;5132913;27;20251;-71
2023/10/14 02:25:33;;;;;;;8.60;4.75;;;;;;;;;;5132651;27;20649;-71
2023/10/14 02:28:00;;;;;;;9.18;5.25;;;;;;;;;;5132397;27;20642;-71
2023/10/14 02:30:26;;;;;;;5.63;4.93;;;;;;;;;;5132473;27;20202;-71
2023/10/14 02:32:53;;;;;;;5.90;4.28;;;;;;;;;;5132595;27;20214;-71
2023/10/14 02:35:19;;;;;;;7.05;5.03;;;;;;;;;;5132319;27;20214;-71
2023/10/14 02:37:49;;;;;;;9.82;4.97;;;;;;;;;;5132564;27;20202;-71
2023/10/14 02:40:23;;;;;;;7.93;5.07;;;;;;;;;;5132169;27;20279;-71
2023/10/14 02:42:57;;;;;;;9.10;5.60;;;;;;;;;;5132733;27;20198;-71
2023/10/14 02:45:26;;;;;;;6.43;5.00;;;;;;;;;;5132400;27;20274;-71
2023/10/14 02:47:53;;;;;;;7.93;5.30;;;;;;;;;;5132146;27;20209;-71
2023/10/14 02:50:24;;;;;;;13.02;5.55;;;;;;;;;;5132147;27;20205;-71
2023/10/14 02:52:50;;;;;;;8.63;5.30;;;;;;;;;;5132307;27;20218;-71
2023/10/14 02:55:25;;;;;;;6.85;4.90;;;;;;;;;;5132057;27;20226;-71
2023/10/14 02:57:50;;;;;;;7.90;4.78;;;;;;;;;;5132382;28;20250;-71
2023/10/14 03:00:20;;;;;;;6.90;5.10;;;;;;;;;;5132092;28;20614;-71
2023/10/14 03:02:54;;;;;;;8.75;4.88;;;;;;;;;;5132349;28;20195;-71
2023/10/14 03:05:35;;;;;;;5.85;4.85;;;;;;;;;;5132005;28;20218;-71
2023/10/14 03:08:09;;;;;;;8.30;5.22;;;;;;;;;;5132444;27;20202;-71
2023/10/14 03:10:39;;;;;;;5.93;5.13;;;;;;;;;;5132069;28;20221;-71
2023/10/14 03:13:05;;;;;;;9.15;5.32;;;;;;;;;;5132161;28;20214;-71
2023/10/14 03:15:38;;;;;;;10.85;5.18;;;;;;;;;;5131855;28;20291;-71
2023/10/14 03:18:06;;;;;;;7.55;4.85;;;;;;;;;;5132169;28;20281;-71
2023/10/14 03:20:39;;;;;;;5.50;4.68;;;;;;;;;;5132084;28;20195;-71
2023/10/14 03:23:10;;;;;;;9.13;5.25;;;;;;;;;;5132204;28;20202;-71
2023/10/14 03:25:36;;;;;;;8.55;4.68;;;;;;;;;;5132018;28;20217;-71
2023/10/14 03:28:08;;;;;;;5.78;5.00;;;;;;;;;;5132032;28;20198;-71
2023/10/14 03:30:37;;;;;;;10.65;4.80;;;;;;;;;;5131882;27;20195;-71
2023/10/14 03:33:03;;;;;;;5.88;4.85;;;;;;;;;;5132190;28;20214;-71
2023/10/14 03:35:32;;;;;;;5.32;4.80;;;;;;;;;;5131836;28;20214;-71
2023/10/14 03:38:05;;;;;;;8.65;5.22;;;;;;;;;;5132022;28;20206;-71
2023/10/14 03:40:51;;;;;;;5.30;4.80;;;;;;;;;;5131650;27;20209;-71
2023/10/14 03:43:18;;;;;;;10.70;4.60;;;;;;;;;;5132074;28;20281;-71
2023/10/14 03:45:48;;;;;;;7.60;4.97;;;;;;;;;;5131770;28;20282;-71
2023/10/14 03:48:14;;;;;;;5.18;4.57;;;;;;;;;;5131873;28;20681;-71
2023/10/14 03:50:42;;;;;;;5.07;4.40;;;;;;;;;;5132054;28;20205;-72
2023/10/14 03:53:09;;;;;;;6.60;4.80;;;;;;;;;;5131670;27;20935;-72
2023/10/14 03:55:35;;;;;;;8.68;5.32;;;;;;;;;;5131484;28;20616;-72
2023/10/14 03:58:04;;;;;;;6.22;4.82;;;;;;;;;;5132140;28;20195;-72
2023/10/14 04:00:37;;;;;;;7.40;4.40;;;;;;;;;;5133241;27;20640;-71
2023/10/14 04:03:11;;;;;;;8.85;5.35;;;;;;;;;;5135802;27;20561;-71
2023/10/14 04:05:38;;;;;;;8.23;4.75;;;;;;;;;;5135287;27;20214;-71
2023/10/14 04:08:08;;;;;;;5.45;4.90;;;;;;;;;;5135557;27;20198;-71
2023/10/14 04:10:37;;;;;;;6.93;5.25;;;;;;;;;;5135277;27;20251;-71
2023/10/14 04:13:06;;;;;;;15.10;5.80;;;;;;;;;;5135218;27;20706;-71
2023/10/14 04:15:44;;;;;;;6.18;5.07;;;;;;;;;;5135193;27;20267;-71
2023/10/14 04:18:13;;;;;;;8.15;5.13;;;;;;;;;;5135271;27;20576;-71
2023/10/14 04:20:45;;;;;;;9.18;5.63;;;;;;;;;;5134790;27;20199;-71
2023/10/14 04:23:26;;;;;;;7.75;5.28;;;;;;;;;;5135199;27;20205;-71
2023/10/14 04:26:02;;;;;;;7.07;4.90;;;;;;;;;;5128239;27;20229;-71
2023/10/14 04:28:31;;;;;;;6.70;5.32;;;;;;;;;;5134989;27;20297;-71
2023/10/14 04:31:00;;;;;;;11.07;4.85;;;;;;;;;;5134787;27;20202;-71
2023/10/14 04:33:34;;;;;;;8.27;5.35;;;;;;;;;;5135170;27;20220;-71
2023/10/14 04:36:21;;;;;;;5.38;4.88;;;;;;;;;;5135089;27;20250;-71
2023/10/14 04:39:04;;;;;;;10.88;4.90;;;;;;;;;;5126946;27;20205;-72
2023/10/14 04:41:31;;;;;;;6.15;5.03;;;;;;;;;;5134921;27;20202;-72
2023/10/14 04:44:03;;;;;;;9.45;5.40;;;;;;;;;;5135287;27;20273;-72
2023/10/14 04:46:45;;;;;;;16.08;5.75;;;;;;;;;;5135082;27;20226;-72
2023/10/14 04:49:15;;;;;;;7.35;5.22;;;;;;;;;;5135000;27;20293;-72
2023/10/14 04:51:46;;;;;;;7.18;4.90;;;;;;;;;;5134390;27;20194;-72
2023/10/14 04:54:19;;;;;;;8.02;5.40;;;;;;;;;;5135262;27;20210;-72
2023/10/14 04:56:45;;;;;;;7.00;5.15;;;;;;;;;;5135333;27;20225;-72
2023/10/14 04:59:12;;;;;;;10.95;5.30;;;;;;;;;;5134649;27;20202;-72
2023/10/14 05:01:41;;;;;;;11.88;4.90;;;;;;;;;;5134799;27;20226;-72
2023/10/14 05:04:08;;;;;;;8.02;5.55;;;;;;;;;;5137952;27;20670;-72
2023/10/14 05:06:40;;;;;;;9.40;5.18;;;;;;;;;;5139831;27;20223;-72
2023/10/14 05:09:09;;;;;;;10.52;4.80;;;;;;;;;;5139656;27;20201;-72
2023/10/14 05:11:37;;;;;;;8.20;4.72;;;;;;;;;;5136536;27;20202;-72
2023/10/14 05:14:08;;;;;;;8.82;4.85;;;;;;;;;;5134026;27;20645;-72
2023/10/14 05:16:53;;;;;;;9.38;4.90;;;;;;;;;;5133785;27;20225;-71
2023/10/14 05:19:24;;;;;;;7.90;4.80;;;;;;;;;;5134109;27;20293;-73
2023/10/14 05:21:56;;;;;;;10.48;4.90;;;;;;;;;;5125284;27;20194;-60
2023/10/14 05:24:28;;;;;;;8.75;4.50;;;;;;;;;;5133314;27;20201;-60
2023/10/14 05:26:59;;;;;;;11.27;4.60;;;;;;;;;;5125316;27;20288;-60
2023/10/14 05:29:27;;;;;;;7.70;4.72;;;;;;;;;;5132704;27;20202;-59
2023/10/14 05:32:31;;;;;;;5.47;4.18;;;;;;;;;;5132480;27;20571;-60
2023/10/14 05:34:59;;;;;;;5.80;4.10;;;;;;;;;;5125718;27;20307;-60
2023/10/14 05:37:26;;;;;;;11.45;5.00;;;;;;;;;;5131273;27;20202;-61
2023/10/14 05:39:54;;;;;;;9.00;4.47;;;;;;;;;;5133077;27;20202;-62
2023/10/14 05:42:22;;;;;;;9.52;4.70;;;;;;;;;;5132788;27;20831;-62
2023/10/14 05:44:49;;;;;;;9.05;4.65;;;;;;;;;;5117588;27;20255;-62
2023/10/14 05:47:15;;;;;;;12.38;4.80;;;;;;;;;;5123861;27;20230;-63
2023/10/14 05:49:43;;;;;;;11.20;4.55;;;;;;;;;;5127522;27;20213;-63
2023/10/14 05:52:11;;;;;;;7.93;4.88;;;;;;;;;;5127092;27;20203;-63
2023/10/14 05:54:37;;;;;;;9.05;4.13;;;;;;;;;;5126970;27;20699;-63
2023/10/14 05:57:04;;;;;;;9.40;4.47;;;;;;;;;;5127558;27;20702;-63
2023/10/14 05:59:32;;;;;;;10.05;5.22;;;;;;;;;;5127134;27;20213;-63
2023/10/14 06:01:58;;;;;;;7.70;4.65;;;;;;;;;;5126680;27;20203;-61
2023/10/14 06:04:24;;;;;;;6.90;5.03;;;;;;;;;;5127275;27;20195;-62
2023/10/14 06:06:50;;;;;;;10.20;5.10;;;;;;;;;;5127066;27;20223;-62
2023/10/14 06:09:17;;;;;;;6.43;4.70;;;;;;;;;;5126741;27;20718;-61
2023/10/14 06:11:45;;;;;;;8.30;4.70;;;;;;;;;;5126379;27;20199;-61
2023/10/14 06:14:12;;;;;;;6.00;4.72;;;;;;;;;;5126693;27;20730;-61
2023/10/14 06:16:39;;;;;;;8.35;4.03;;;;;;;;;;5127260;27;20218;-61
2023/10/14 06:19:05;;;;;;;11.52;4.65;;;;;;;;;;5125740;27;20963;-64
2023/10/14 06:21:33;;;;;;;7.82;5.20;;;;;;;;;;5124339;27;20199;-61
2023/10/14 06:24:00;;;;;;;9.57;4.75;;;;;;;;;;5124478;27;20224;-63
2023/10/14 06:26:26;;;;;;;6.55;4.45;;;;;;;;;;5118023;27;20917;-62
2023/10/14 06:28:56;;;;;;;8.82;4.35;;;;;;;;;;5124535;27;20206;-60
2023/10/14 06:31:22;;;;;;;5.35;4.20;;;;;;;;;;5124522;27;20281;-60
2023/10/14 06:33:50;;;;;;;6.28;4.55;;;;;;;;;;5125124;27;20218;-62
2023/10/14 06:36:17;;;;;;;8.80;4.40;;;;;;;;;;5126595;27;20222;-62
2023/10/14 06:38:45;;;;;;;6.95;4.28;;;;;;;;;;5126703;27;20202;-61
2023/10/14 06:41:13;;;;;;;4.78;4.35;;;;;;;;;;5126717;27;20534;-63
2023/10/14 06:43:43;;;;;;;7.88;4.70;;;;;;;;;;5126939;27;20198;-63
2023/10/14 06:46:11;;;;;;;7.70;4.60;;;;;;;;;;5126431;27;20721;-62
2023/10/14 06:48:38;;;;;;;8.75;4.63;;;;;;;;;;5126544;27;20217;-61
2023/10/14 06:51:09;;;;;;;8.82;4.47;;;;;;;;;;5126429;27;20717;-63
2023/10/14 06:53:35;;;;;;;7.32;5.00;;;;;;;;;;5126757;27;20321;-60
2023/10/14 06:56:02;;;;;;;6.40;5.13;;;;;;;;;;5132119;27;20701;-60
2023/10/14 06:58:29;;;;;;;8.02;4.85;;;;;;;;;;5131777;27;20562;-60
2023/10/14 07:00:56;;;;;;;8.07;4.65;;;;;;;;;;5130976;28;20792;-60
2023/10/14 07:03:22;;;;;;;9.70;4.63;;;;;;;;;;5132513;28;20191;-60
2023/10/14 07:05:56;;;;;;;4.93;4.45;;;;;;;;;;5128846;28;20492;-60
2023/10/14 07:08:24;;;;;;;6.05;4.30;;;;;;;;;;5129066;28;20202;-60
2023/10/14 07:10:51;;;;;;;8.05;4.05;;;;;;;;;;5128889;28;20202;-60
2023/10/14 07:13:19;;;;;;;5.30;4.68;;;;;;;;;;5128833;28;20214;-60
2023/10/14 07:15:45;;;;;;;7.47;4.35;;;;;;;;;;5129237;28;20375;-60
2023/10/14 07:18:13;;;;;;;6.43;4.70;;;;;;;;;;5129179;28;20198;-60
2023/10/14 07:20:39;;;;;;;6.47;4.60;;;;;;;;;;5131049;28;20195;-60
2023/10/14 07:23:06;;;;;;;9.25;5.30;;;;;;;;;;5132198;28;20195;-60
2023/10/14 07:25:35;;;;;;;11.02;5.65;;;;;;;;;;5131946;28;20701;-60
2023/10/14 07:28:07;;;;;;;6.53;5.15;;;;;;;;;;5123654;28;20191;-60
2023/10/14 07:30:34;;;;;;;10.55;5.75;;;;;;;;;;5132022;28;20198;-60
2023/10/14 07:33:01;;;;;;;11.50;5.00;;;;;;;;;;5123643;28;20197;-60
2023/10/14 07:35:27;;;;;;;7.80;5.00;;;;;;;;;;5135299;27;20218;-60
2023/10/14 07:37:54;;;;;;;10.68;5.57;;;;;;;;;;5135783;27;20285;-60
2023/10/14 07:40:24;;;;;;;9.70;4.88;;;;;;;;;;5135562;27;20285;-60
2023/10/14 07:42:53;;;;;;;6.88;4.70;;;;;;;;;;5136247;27;20199;-60
2023/10/14 07:45:19;;;;;;;9.20;5.13;;;;;;;;;;5135928;27;20248;-60
2023/10/14 07:47:46;;;;;;;13.00;5.35;;;;;;;;;;5135468;27;20678;-61
2023/10/14 07:50:12;;;;;;;9.43;4.72;;;;;;;;;;5135930;27;20191;-60
2023/10/14 07:52:38;;;;;;;12.23;5.18;;;;;;;;;;5135804;27;20239;-60
2023/10/14 07:55:10;;;;;;;10.10;5.05;;;;;;;;;;5135527;27;20221;-60
2023/10/14 07:57:38;;;;;;;7.25;4.57;;;;;;;;;;5135931;27;20244;-60
2023/10/14 08:00:12;;;;;;;5.03;4.43;;;;;;;;;;5127582;27;20194;-60
2023/10/14 08:02:38;;;;;;;9.65;4.75;;;;;;;;;;5135922;27;20190;-61
2023/10/14 08:05:06;;;;;;;9.00;4.15;;;;;;;;;;5127322;27;20195;-61
2023/10/14 08:07:34;;;;;;;8.93;4.80;;;;;;;;;;5136220;27;20191;-60
2023/10/14 08:10:16;;;;;;;11.13;4.30;;;;;;;;;;5135757;27;20239;-61
2023/10/14 08:12:42;;;;;;;4.53;3.80;;;;;;;;;;5135754;27;20293;-60
2023/10/14 08:15:10;;;;;;;7.97;3.92;;;;;;;;;;5135456;27;20213;-61
2023/10/14 08:17:37;;;;;;;4.80;3.28;;;;;;;;;;5135378;27;20572;-60
2023/10/14 08:20:12;;;;;;;10.07;3.92;;;;;;;;;;5135150;27;20248;-60
2023/10/14 08:22:38;;;;;;;9.20;3.95;;;;;;;;;;5135855;27;20191;-60
2023/10/14 08:25:05;;;;;;;7.15;3.38;;;;;;;;;;5135070;27;20578;-60
2023/10/14 08:27:33;;;;;;;9.93;3.40;;;;;;;;;;5135416;27;20194;-60
2023/10/14 08:30:00;;;;;;;6.05;3.20;;;;;;;;;;5134973;27;20221;-60
2023/10/14 08:32:29;;;;;;;6.13;3.47;;;;;;;;;;5135155;27;20706;-60
2023/10/14 08:34:55;;;;;;;5.63;3.15;;;;;;;;;;5135142;27;20236;-60
2023/10/14 08:37:21;;;;;;;13.13;3.55;;;;;;;;;;5135021;27;20195;-60
2023/10/14 08:39:48;;;;;;;4.05;2.80;;;;;;;;;;5134893;27;20591;-60
2023/10/14 08:42:15;;;;;;;5.93;3.42;;;;;;;;;;5134898;27;20202;-60
2023/10/14 08:44:43;;;;;;;9.00;3.60;;;;;;;;;;5135091;27;20191;-60
2023/10/14 08:47:13;;;;;;;10.50;3.75;;;;;;;;;;5125955;27;20740;-60
2023/10/14 08:49:41;;;;;;;9.48;4.22;;;;;;;;;;5135276;27;20572;-60
2023/10/14 08:52:09;;;;;;;11.35;4.32;;;;;;;;;;5126329;27;20222;-60
2023/10/14 08:54:37;;;;;;;8.10;4.30;;;;;;;;;;5134669;27;20215;-60
2023/10/14 08:57:03;;;;;;;4.63;4.18;;;;;;;;;;5128857;27;20710;-60
2023/10/14 08:59:29;;;;;;;9.82;3.90;;;;;;;;;;5117660;27;20226;-63
2023/10/14 09:01:57;;;;;;;7.75;3.50;;;;;;;;;;5126410;27;20938;-61
2023/10/14 09:04:26;;;;;;;11.50;3.95;;;;;;;;;;5118504;27;20234;-62
2023/10/14 09:06:54;;;;;;;6.32;3.72;;;;;;;;;;5128520;27;20226;-63
2023/10/14 09:09:23;;;;;;;6.57;3.30;;;;;;;;;;5125216;27;20213;-61
2023/10/14 09:11:51;;;;;;;8.50;3.70;;;;;;;;;;5121476;27;20405;-62
2023/10/14 09:14:18;;;;;;;6.70;3.67;;;;;;;;;;5114844;27;20294;-60
2023/10/14 09:16:48;;;;;;;6.13;3.30;;;;;;;;;;5119248;27;20729;-62
2023/10/14 09:19:15;;;;;;;4.55;3.08;;;;;;;;;;5113641;27;20213;-61
2023/10/14 09:21:42;;;;;;;11.77;3.20;;;;;;;;;;5127795;27;20255;-61
2023/10/14 09:24:10;;;;;;;5.38;3.22;;;;;;;;;;5128239;27;20222;-62
2023/10/14 09:26:37;;;;;;;7.10;3.72;;;;;;;;;;5128210;27;20222;-59
2023/10/14 09:29:04;;;;;;;5.60;3.47;;;;;;;;;;5127829;27;20583;-60
2023/10/14 09:31:30;;;;;;;7.38;4.00;;;;;;;;;;5128309;27;20203;-61
2023/10/14 09:33:56;;;;;;;6.30;0.93;;;;;;;;;;5128184;27;20226;-61
2023/10/14 09:36:22;;;;;;;0.63;0.50;;;;;;;;;;5128056;27;20732;-61
2023/10/14 09:38:49;;;;;;;2.17;0.60;;;;;;;;;;5128064;27;20232;-62
2023/10/14 09:41:17;;;;;;;1.05;0.60;;;;;;;;;;5127915;27;20206;-61
2023/10/14 09:43:45;;;;;;;5.20;0.65;;;;;;;;;;5128248;27;20261;-62
2023/10/14 09:46:12;;;;;;;0.52;0.47;;;;;;;;;;5127746;27;20229;-60
2023/10/14 09:48:39;;;;;;;2.47;0.50;;;;;;;;;;5127805;27;20657;-62
2023/10/14 09:51:06;;;;;;;0.85;0.57;;;;;;;;;;5128017;27;20206;-62
2023/10/14 09:53:33;;;;;;;2.40;0.55;;;;;;;;;;5127827;27;20233;-59
2023/10/14 09:56:04;;;;;;;0.73;0.70;;;;;;;;;;5127335;27;20333;-60
2023/10/14 09:58:34;;;;;;;0.95;0.70;;;;;;;;;;5126271;27;20217;-64
2023/10/14 10:01:01;;;;;;;6.43;0.80;;;;;;;;;;5127614;27;20217;-63
2023/10/14 10:03:28;;;;;;;4.00;1.33;;;;;;;;;;5127658;27;20229;-63
2023/10/14 10:06:00;;;;;;;3.15;0.90;;;;;;;;;;5127374;27;20221;-64
2023/10/14 10:08:48;;;;;;;0.88;0.88;;;;;;;;;;5127643;27;20206;-62
2023/10/14 10:11:23;;;;;;;0.82;0.77;;;;;;;;;;5127275;27;20521;-61
2023/10/14 10:13:50;;;;;;;6.45;2.20;;;;;;;;;;5127584;27;20693;-61
2023/10/14 10:16:20;;;;;;;3.63;1.20;;;;;;;;;;5118959;27;20222;-60
2023/10/14 10:18:49;;;;;;;10.70;3.35;;;;;;;;;;5127070;27;20212;-62
2023/10/14 10:21:16;;;;;;;1.17;0.95;;;;;;;;;;5127015;27;20218;-60
2023/10/14 10:23:43;;;;;;;1.38;1.00;;;;;;;;;;5127214;27;20202;-60
2023/10/14 10:26:12;;;;;;;2.42;0.80;;;;;;;;;;5127200;27;20226;-59
2023/10/14 10:28:39;;;;;;;0.70;0.70;;;;;;;;;;5127160;27;20210;-61
2023/10/14 10:31:09;;;;;;;0.88;0.88;;;;;;;;;;5126826;27;20710;-62
2023/10/14 10:33:45;;;;;;;1.00;1.00;;;;;;;;;;5130513;27;20678;-61
2023/10/14 10:36:13;;;;;;;1.05;0.90;;;;;;;;;;5132799;27;20256;-61
2023/10/14 10:38:39;;;;;;;0.88;0.88;;;;;;;;;;5132864;27;20205;-61
2023/10/14 10:41:18;;;;;;;1.42;0.98;;;;;;;;;;5132657;27;20199;-61
2023/10/14 10:43:46;;;;;;;0.68;0.68;;;;;;;;;;5132715;27;20225;-61
2023/10/14 10:46:27;;;;;;;0.60;0.60;;;;;;;;;;5132728;27;20686;-62
2023/10/14 10:48:54;;;;;;;1.45;0.85;;;;;;;;;;5132934;27;20222;-61
2023/10/14 10:51:22;;;;;;;3.13;0.90;;;;;;;;;;5132490;27;20670;-62
2023/10/14 10:53:49;;;;;;;0.80;0.80;;;;;;;;;;5132712;27;20248;-62
2023/10/14 10:56:18;;;;;;;2.15;1.05;;;;;;;;;;5132109;27;20286;-62
2023/10/14 10:58:45;;;;;;;1.05;1.05;;;;;;;;;;5132691;28;20199;-61
2023/10/14 11:01:12;;;;;;;1.30;0.90;;;;;;;;;;5132377;28;20690;-62
2023/10/14 11:03:38;;;;;;;0.70;0.70;;;;;;;;;;5132746;28;20198;-62
2023/10/14 11:06:06;;;;;;;2.80;1.00;;;;;;;;;;5132290;28;20215;-62
2023/10/14 11:08:32;;;;;;;0.77;0.77;;;;;;;;;;5132622;27;20198;-61
2023/10/14 11:11:01;;;;;;;1.02;0.90;;;;;;;;;;5136301;27;20202;-61
2023/10/14 11:13:28;;;;;;;1.00;0.90;;;;;;;;;;5137006;27;20243;-61
2023/10/14 11:15:54;;;;;;;1.25;0.70;;;;;;;;;;5137072;27;20233;-61
2023/10/14 11:18:20;;;;;;;1.08;0.70;;;;;;;;;;5136595;27;20197;-61
2023/10/14 11:20:47;;;;;;;0.80;0.80;;;;;;;;;;5136419;27;20205;-61
2023/10/14 11:23:17;;;;;;;1.77;1.02;;;;;;;;;;5136866;27;20198;-61
2023/10/14 11:25:45;;;;;;;1.33;0.90;;;;;;;;;;5136586;27;20267;-61
2023/10/14 11:28:14;;;;;;;2.65;1.20;;;;;;;;;;5136403;27;20202;-61
2023/10/14 11:30:41;;;;;;;3.63;1.30;;;;;;;;;;5136415;27;20201;-61
2023/10/14 11:33:09;;;;;;;1.35;1.00;;;;;;;;;;5136512;27;20225;-61
2023/10/14 11:35:37;;;;;;;1.88;1.05;;;;;;;;;;5136157;27;20305;-61
2023/10/14 11:38:04;;;;;;;2.83;1.30;;;;;;;;;;5136108;27;20206;-60
2023/10/14 11:40:34;;;;;;;2.10;0.85;;;;;;;;;;5136007;27;20250;-61
2023/10/14 11:43:01;;;;;;;3.35;0.90;;;;;;;;;;5136414;27;20209;-61
2023/10/14 11:45:27;;;;;;;1.48;1.30;;;;;;;;;;5135901;27;20214;-61
2023/10/14 11:47:53;;;;;;;1.20;1.20;;;;;;;;;;5136108;27;20194;-60
2023/10/14 11:50:20;;;;;;;1.02;0.90;;;;;;;;;;5135653;27;20206;-60
2023/10/14 11:52:47;;;;;;;1.00;1.00;;;;;;;;;;5136493;27;20202;-61
2023/10/14 11:55:15;;;;;;;1.55;1.00;;;;;;;;;;5135655;27;20226;-61
2023/10/14 11:57:44;;;;;;;0.80;0.80;;;;;;;;;;5136025;27;20229;-61
2023/10/14 12:00:12;;;;;;;1.20;1.10;;;;;;;;;;5136123;27;20578;-61
2023/10/14 12:02:39;;;;;;;2.63;0.93;;;;;;;;;;5135903;27;20247;-61
2023/10/14 12:05:05;;;;;;;1.05;0.90;;;;;;;;;;5135474;27;20916;-62
2023/10/14 12:07:32;;;;;;;1.33;0.85;;;;;;;;;;5135679;27;20550;-61
2023/10/14 12:09:59;;;;;;;0.63;0.63;;;;;;;;;;5135382;27;20674;-61
2023/10/14 12:12:25;;;;;;;1.27;0.85;;;;;;;;;;5135559;27;20230;-62
2023/10/14 12:14:53;;;;;;;1.77;0.70;;;;;;;;;;5135685;27;20214;-61
2023/10/14 12:17:19;;;;;;;0.50;0.50;;;;;;;;;;5135369;27;20217;-62
2023/10/14 12:19:45;;;;;;;3.92;0.70;;;;;;;;;;5135176;27;20209;-60
2023/10/14 12:22:12;;;;;;;0.73;0.40;;;;;;;;;;5134410;27;20198;-61
2023/10/14 12:24:38;;;;;;;1.83;0.80;;;;;;;;;;5135675;27;20201;-61
2023/10/14 12:27:09;;;;;;;1.05;0.70;;;;;;;;;;5135211;27;20222;-61
2023/10/14 12:29:36;;;;;;;1.08;0.70;;;;;;;;;;5135322;27;20211;-61
2023/10/14 12:32:07;;;;;;;0.52;0.52;;;;;;;;;;5135019;27;20289;-61
2023/10/14 12:34:39;;;;;;;0.65;0.47;;;;;;;;;;5128219;27;20200;-61
2023/10/14 12:37:06;;;;;;;0.50;0.50;;;;;;;;;;5135081;27;20226;-61
2023/10/14 12:39:43;;;;;;;1.38;0.60;;;;;;;;;;5135148;27;20202;-61
2023/10/14 12:42:09;;;;;;;0.50;0.50;;;;;;;;;;5134762;27;20201;-60
2023/10/14 12:44:35;;;;;;;2.38;0.70;;;;;;;;;;5135052;27;20208;-60
2023/10/14 12:47:10;;;;;;;1.40;1.00;;;;;;;;;;5135115;27;20253;-60
2023/10/14 12:49:38;;;;;;;0.90;0.90;;;;;;;;;;5127473;27;20225;-60
2023/10/14 12:52:12;;;;;;;1.02;0.90;;;;;;;;;;5134907;27;20237;-60
2023/10/14 12:54:38;;;;;;;0.60;0.60;;;;;;;;;;5127301;27;20217;-60
2023/10/14 12:57:07;;;;;;;0.98;0.60;;;;;;;;;;5134724;27;20253;-61
2023/10/14 12:59:36;;;;;;;0.60;0.60;;;;;;;;;;5126759;27;20190;-62
2023/10/14 13:02:03;;;;;;;0.90;0.90;;;;;;;;;;5134712;27;20205;-61
2023/10/14 13:04:29;;;;;;;3.40;1.08;;;;;;;;;;5134521;27;20287;-61
2023/10/14 13:06:57;;;;;;;3.78;0.80;;;;;;;;;;5134563;27;20574;-61
2023/10/14 13:09:27;;;;;;;1.48;0.60;;;;;;;;;;5134380;27;20341;-61
2023/10/14 13:11:55;;;;;;;1.77;0.60;;;;;;;;;;5134149;27;20198;-60
2023/10/14 13:14:26;;;;;;;0.80;0.80;;;;;;;;;;5134685;27;20198;-62
2023/10/14 13:16:53;;;;;;;2.30;0.65;;;;;;;;;;5134544;27;20287;-63
2023/10/14 13:19:19;;;;;;;0.85;0.70;;;;;;;;;;5134054;27;20612;-62
2023/10/14 13:21:45;;;;;;;1.98;0.70;;;;;;;;;;5134152;27;20205;-62
2023/10/14 13:24:13;;;;;;;0.50;0.50;;;;;;;;;;5134118;27;20209;-62
2023/10/14 13:26:39;;;;;;;1.73;0.90;;;;;;;;;;5134462;27;20222;-63
2023/10/14 13:29:06;;;;;;;1.90;0.70;;;;;;;;;;5134354;27;20202;-60
2023/10/14 13:31:32;;;;;;;0.85;0.85;;;;;;;;;;5133657;27;20198;-60
2023/10/14 13:34:00;;;;;;;2.05;0.90;;;;;;;;;;5133997;27;20195;-61
2023/10/14 13:36:26;;;;;;;1.58;0.80;;;;;;;;;;5133623;27;20308;-60
2023/10/14 13:38:53;;;;;;;0.68;0.68;;;;;;;;;;5133709;27;20634;-61
2023/10/14 13:41:23;;;;;;;2.20;0.50;;;;;;;;;;5133998;27;20221;-61
2023/10/14 13:43:50;;;;;;;1.45;0.73;;;;;;;;;;5133918;27;20677;-60
2023/10/14 13:46:17;;;;;;;2.58;0.68;;;;;;;;;;5133589;27;20607;-61
2023/10/14 13:48:44;;;;;;;2.65;0.98;;;;;;;;;;5133757;27;20226;-59
2023/10/14 13:51:11;;;;;;;2.60;1.70;;;;;;;;;;5133401;27;20211;-60
2023/10/14 13:53:37;;;;;;;1.80;1.70;;;;;;;;;;5133850;27;20198;-61
2023/10/14 13:56:04;;;;;;;1.25;1.23;;;;;;;;;;5133700;27;20223;-61
2023/10/14 13:58:34;;;;;;;0.85;0.85;;;;;;;;;;5133585;27;20202;-61
2023/10/14 14:01:01;;;;;;;0.93;0.90;;;;;;;;;;5133888;27;20202;-60
2023/10/14 14:03:29;;;;;;;1.40;1.30;;;;;;;;;;5133989;27;20226;-60
2023/10/14 14:05:55;;;;;;;0.68;0.68;;;;;;;;;;5133354;27;20245;-61
2023/10/14 14:08:25;;;;;;;1.67;0.55;;;;;;;;;;5133598;27;20206;-61
2023/10/14 14:10:52;;;;;;;0.70;0.70;;;;;;;;;;5133164;27;20550;-61
2023/10/14 14:13:19;;;;;;;0.77;0.73;;;;;;;;;;5133285;27;20289;-61
2023/10/14 14:15:47;;;;;;;1.05;1.05;;;;;;;;;;5133061;27;20291;-61
2023/10/14 14:18:14;;;;;;;1.27;0.93;;;;;;;;;;5132963;27;20229;-61
2023/10/14 14:20:41;;;;;;;0.85;0.82;;;;;;;;;;5133181;27;20232;-61
2023/10/14 14:23:07;;;;;;;0.98;0.77;;;;;;;;;;5133388;27;20222;-61
2023/10/14 14:25:35;;;;;;;1.23;0.80;;;;;;;;;;5133114;27;20214;-61
2023/10/14 14:28:03;;;;;;;1.60;0.85;;;;;;;;;;5133039;27;20255;-60
2023/10/14 14:30:30;;;;;;;1.13;0.88;;;;;;;;;;5132848;27;20194;-61
2023/10/14 14:32:58;;;;;;;1.02;0.80;;;;;;;;;;5133070;27;20589;-61
2023/10/14 14:35:26;;;;;;;1.10;1.02;;;;;;;;;;5133095;27;20218;-60
2023/10/14 14:37:52;;;;;;;2.55;0.90;;;;;;;;;;5133382;27;20254;-61
2023/10/14 14:40:23;;;;;;;0.90;0.90;;;;;;;;;;5133115;27;20210;-61
2023/10/14 14:42:51;;;;;;;1.35;1.00;;;;;;;;;;5133570;27;20206;-61
2023/10/14 14:45:22;;;;;;;2.08;1.10;;;;;;;;;;5132492;27;20599;-61
2023/10/14 14:47:48;;;;;;;0.90;0.90;;;;;;;;;;5132901;27;20255;-60
2023/10/14 14:50:16;;;;;;;2.25;0.90;;;;;;;;;;5132721;27;20213;-60